createdAt,value
2022-10-09T00:01:03.906Z,3.45
2022-10-09T00:03:32.013Z,3.42
2022-10-09T00:06:00.102Z,3.13
2022-10-09T00:08:28.493Z,2.78
2022-10-09T00:10:56.668Z,3.22
2022-10-09T00:13:24.914Z,3.33
2022-10-09T00:15:54.296Z,3.25
2022-10-09T00:18:22.438Z,3.45
2022-10-09T00:20:50.438Z,3.40
2022-10-09T00:23:18.578Z,3.92
2022-10-09T00:25:54.071Z,3.00
2022-10-09T00:28:22.902Z,3.63
2022-10-09T00:30:51.220Z,4.05
2022-10-09T00:33:21.185Z,3.35
2022-10-09T00:35:49.466Z,3.58
2022-10-09T00:38:18.116Z,3.65
2022-10-09T00:40:46.157Z,3.22
2022-10-09T00:43:17.604Z,2.95
2022-10-09T00:45:50.895Z,3.25
2022-10-09T00:48:21.247Z,3.67
2022-10-09T00:50:54.023Z,3.28
2022-10-09T00:53:24.933Z,3.65
2022-10-09T00:55:53.332Z,3.85
2022-10-09T00:58:22.999Z,3.20
2022-10-09T01:00:51.090Z,3.05
2022-10-09T01:03:20.572Z,3.17
2022-10-09T01:05:59.011Z,3.17
2022-10-09T01:08:31.641Z,3.22
2022-10-09T01:11:06.736Z,3.30
2022-10-09T01:13:39.925Z,3.20
2022-10-09T01:16:16.694Z,3.00
2022-10-09T01:18:53.809Z,3.13
2022-10-09T01:21:26.860Z,3.50
2022-10-09T01:24:10.102Z,3.38
2022-10-09T01:26:58.567Z,3.65
2022-10-09T01:29:31.056Z,3.08
2022-10-09T01:32:01.156Z,2.97
2022-10-09T01:34:30.190Z,3.20
2022-10-09T01:36:59.436Z,3.20
2022-10-09T01:39:28.574Z,2.92
2022-10-09T01:41:58.736Z,3.00
2022-10-09T01:44:28.746Z,3.20
2022-10-09T01:46:57.302Z,3.05
2022-10-09T01:49:42.106Z,3.20
2022-10-09T01:52:22.847Z,3.65
2022-10-09T01:55:02.121Z,3.50
2022-10-09T01:57:40.924Z,3.35
2022-10-09T02:00:11.825Z,3.42
2022-10-09T02:02:42.158Z,3.05
2022-10-09T02:05:12.063Z,2.63
2022-10-09T02:07:40.201Z,3.35
2022-10-09T02:10:10.952Z,3.13
2022-10-09T02:12:44.738Z,2.75
2022-10-09T02:15:13.357Z,3.60
2022-10-09T02:17:46.796Z,3.60
2022-10-09T02:20:21.707Z,3.28
2022-10-09T02:22:50.848Z,2.80
2022-10-09T02:25:19.938Z,2.90
2022-10-09T02:27:49.514Z,3.13
2022-10-09T02:30:19.075Z,3.42
2022-10-09T02:32:47.272Z,2.90
2022-10-09T02:35:15.473Z,3.00
2022-10-09T02:37:43.427Z,2.95
2022-10-09T02:40:12.425Z,3.13
2022-10-09T02:42:40.459Z,3.47
2022-10-09T02:45:11.266Z,3.65
2022-10-09T02:47:39.239Z,3.13
2022-10-09T02:50:08.731Z,2.80
2022-10-09T02:52:36.729Z,4.10
2022-10-09T02:55:05.015Z,3.67
2022-10-09T02:57:32.957Z,4.40
2022-10-09T03:00:00.944Z,3.78
2022-10-09T03:02:30.404Z,4.75
2022-10-09T03:04:58.444Z,4.35
2022-10-09T03:07:26.380Z,4.32
2022-10-09T03:09:54.358Z,3.90
2022-10-09T03:12:22.279Z,4.15
2022-10-09T03:14:50.276Z,5.05
2022-10-09T03:17:18.286Z,4.55
2022-10-09T03:19:47.605Z,4.18
2022-10-09T03:22:15.568Z,3.88
2022-10-09T03:24:43.729Z,3.58
2022-10-09T03:27:11.699Z,3.90
2022-10-09T03:29:39.704Z,3.53
2022-10-09T03:32:07.723Z,3.65
2022-10-09T03:34:35.743Z,3.60
2022-10-09T03:37:05.209Z,3.40
2022-10-09T03:39:33.328Z,3.42
2022-10-09T03:42:01.277Z,3.35
2022-10-09T03:44:29.344Z,4.15
2022-10-09T03:46:57.366Z,3.70
2022-10-09T03:49:25.473Z,3.85
2022-10-09T03:51:53.455Z,3.75
2022-10-09T03:54:22.800Z,4.10
2022-10-09T03:56:50.774Z,3.20
2022-10-09T03:59:18.754Z,3.70
2022-10-09T04:01:46.730Z,3.42
2022-10-09T04:04:15.136Z,4.32
2022-10-09T04:06:43.335Z,3.88
2022-10-09T04:09:11.329Z,3.53
2022-10-09T04:11:40.836Z,3.50
2022-10-09T04:14:08.859Z,4.03
2022-10-09T04:16:36.981Z,3.70
2022-10-09T04:19:04.987Z,3.67
2022-10-09T04:21:33.968Z,3.47
2022-10-09T04:24:03.646Z,4.03
2022-10-09T04:26:31.659Z,4.10
2022-10-09T04:29:00.992Z,4.13
2022-10-09T04:31:29.123Z,4.18
2022-10-09T04:33:57.459Z,4.05
2022-10-09T04:36:25.644Z,4.35
2022-10-09T04:38:53.759Z,4.68
2022-10-09T04:41:21.764Z,4.20
2022-10-09T04:43:49.786Z,4.10
2022-10-09T04:46:19.257Z,4.10
2022-10-09T04:48:48.138Z,3.92
2022-10-09T04:51:17.234Z,4.20
2022-10-09T04:53:45.737Z,3.58
2022-10-09T04:56:16.791Z,4.00
2022-10-09T04:58:45.629Z,4.97
2022-10-09T05:01:16.010Z,4.75
2022-10-09T05:03:45.778Z,5.00
2022-10-09T05:06:15.240Z,4.45
2022-10-09T05:08:43.847Z,4.47
2022-10-09T05:11:14.003Z,4.97
2022-10-09T05:13:45.833Z,4.68
2022-10-09T05:16:15.954Z,4.47
2022-10-09T05:18:47.666Z,4.93
2022-10-09T05:21:16.316Z,5.00
2022-10-09T05:23:44.667Z,5.07
2022-10-09T05:26:14.526Z,5.13
2022-10-09T05:28:42.658Z,5.10
2022-10-09T05:31:16.341Z,5.90
2022-10-09T05:33:45.749Z,5.28
2022-10-09T05:36:13.752Z,4.65
2022-10-09T05:38:41.846Z,5.03
2022-10-09T05:41:12.264Z,5.50
2022-10-09T05:43:41.791Z,5.88
2022-10-09T05:46:11.869Z,4.85
2022-10-09T05:48:41.345Z,4.78
2022-10-09T05:51:16.059Z,5.00
2022-10-09T05:53:45.473Z,4.95
2022-10-09T05:56:15.770Z,4.72
2022-10-09T05:58:44.983Z,5.38
2022-10-09T06:01:13.067Z,5.05
2022-10-09T06:03:41.074Z,4.85
2022-10-09T06:06:09.851Z,5.18
2022-10-09T06:08:39.959Z,5.15
2022-10-09T06:11:15.782Z,5.63
2022-10-09T06:13:44.441Z,6.20
2022-10-09T06:16:13.639Z,5.70
2022-10-09T06:18:46.700Z,6.07
2022-10-09T06:21:17.293Z,5.20
2022-10-09T06:23:50.739Z,5.32
2022-10-09T06:26:19.626Z,5.38
2022-10-09T06:28:48.178Z,6.30
2022-10-09T06:31:19.021Z,5.10
2022-10-09T06:33:48.644Z,5.07
2022-10-09T06:36:19.029Z,5.55
2022-10-09T06:38:48.852Z,4.78
2022-10-09T06:41:18.524Z,5.70
2022-10-09T06:43:50.356Z,6.20
2022-10-09T06:46:18.691Z,5.43
2022-10-09T06:48:46.688Z,5.38
2022-10-09T06:51:17.225Z,4.93
2022-10-09T06:53:47.171Z,4.80
2022-10-09T06:56:17.813Z,6.05
2022-10-09T06:58:46.754Z,5.07
2022-10-09T07:01:16.454Z,5.70
2022-10-09T07:03:46.298Z,4.93
2022-10-09T07:06:16.835Z,5.60
2022-10-09T07:08:46.318Z,5.00
2022-10-09T07:11:17.679Z,4.60
2022-10-09T07:13:46.189Z,5.13
2022-10-09T07:16:14.253Z,4.93
2022-10-09T07:18:42.260Z,5.10
2022-10-09T07:21:10.958Z,4.90
2022-10-09T07:23:38.904Z,5.18
2022-10-09T07:26:12.863Z,5.00
2022-10-09T07:28:43.304Z,5.45
2022-10-09T07:31:11.986Z,4.68
2022-10-09T07:33:41.674Z,5.47
2022-10-09T07:36:10.680Z,6.10
2022-10-09T07:38:38.763Z,5.43
2022-10-09T07:41:09.459Z,5.18
2022-10-09T07:43:38.325Z,5.00
2022-10-09T07:46:11.989Z,5.75
2022-10-09T07:48:40.163Z,6.18
2022-10-09T07:51:10.804Z,5.50
2022-10-09T07:53:39.499Z,5.35
2022-10-09T07:56:07.998Z,5.20
2022-10-09T07:58:36.058Z,4.93
2022-10-09T08:01:09.367Z,4.97
2022-10-09T08:03:38.063Z,5.05
2022-10-09T08:06:06.763Z,5.63
2022-10-09T08:08:34.759Z,5.20
2022-10-09T08:11:09.655Z,6.70
2022-10-09T08:13:37.697Z,5.18
2022-10-09T08:16:06.040Z,4.90
2022-10-09T08:18:36.203Z,5.60
2022-10-09T08:21:06.503Z,5.45
2022-10-09T08:23:34.643Z,5.63
2022-10-09T08:26:02.919Z,4.90
2022-10-09T08:28:31.378Z,5.38
2022-10-09T08:30:59.492Z,5.50
2022-10-09T08:33:27.955Z,5.15
2022-10-09T08:36:07.827Z,5.00
2022-10-09T08:38:47.293Z,5.20
2022-10-09T08:41:27.612Z,4.90
2022-10-09T08:44:01.708Z,5.20
2022-10-09T08:46:36.632Z,5.18
2022-10-09T08:49:05.749Z,4.43
2022-10-09T08:51:39.677Z,5.00
2022-10-09T08:54:20.398Z,4.70
2022-10-09T08:56:50.864Z,4.80
2022-10-09T08:59:18.970Z,4.55
2022-10-09T09:01:53.727Z,4.70
2022-10-09T09:04:36.717Z,5.70
2022-10-09T09:07:15.733Z,4.93
2022-10-09T09:09:53.324Z,5.03
2022-10-09T09:12:30.126Z,4.68
2022-10-09T09:15:14.319Z,4.80
2022-10-09T09:17:51.272Z,5.53
2022-10-09T09:20:25.862Z,5.30
2022-10-09T09:22:59.038Z,4.47
2022-10-09T09:25:28.961Z,4.82
2022-10-09T09:28:03.407Z,4.40
2022-10-09T09:30:35.628Z,4.72
2022-10-09T09:33:16.768Z,4.20
2022-10-09T09:35:53.251Z,4.45
2022-10-09T09:38:22.648Z,4.60
2022-10-09T09:40:50.843Z,4.00
2022-10-09T09:43:21.361Z,4.63
2022-10-09T09:45:50.255Z,4.30
2022-10-09T09:48:22.338Z,5.10
2022-10-09T09:51:10.228Z,4.38
2022-10-09T09:53:44.603Z,4.80
2022-10-09T09:56:12.833Z,4.78
2022-10-09T09:58:46.671Z,5.28
2022-10-09T10:01:23.687Z,5.13
2022-10-09T10:03:53.772Z,4.57
2022-10-09T10:06:25.898Z,4.38
2022-10-09T10:09:03.489Z,3.72
2022-10-09T10:11:35.024Z,4.50
2022-10-09T10:14:07.915Z,4.43
2022-10-09T10:16:39.102Z,3.60
2022-10-09T10:19:07.395Z,4.47
2022-10-09T10:21:42.252Z,4.05
2022-10-09T10:24:19.347Z,3.75
2022-10-09T10:26:52.838Z,4.15
2022-10-09T10:29:24.546Z,4.18
2022-10-09T10:31:56.736Z,4.35
2022-10-09T10:34:28.115Z,4.40
2022-10-09T10:37:03.430Z,3.47
2022-10-09T10:39:40.794Z,3.80
2022-10-09T10:42:19.565Z,3.45
2022-10-09T10:44:53.625Z,4.15
2022-10-09T10:47:24.876Z,3.70
2022-10-09T10:49:53.190Z,3.65
2022-10-09T10:52:35.289Z,4.25
2022-10-09T10:55:18.033Z,3.85
2022-10-09T10:57:53.946Z,3.92
2022-10-09T11:00:22.075Z,4.20
2022-10-09T11:03:07.530Z,4.13
2022-10-09T11:05:49.513Z,4.05
2022-10-09T11:08:38.817Z,4.20
2022-10-09T11:11:14.094Z,3.92
2022-10-09T11:13:51.959Z,3.45
2022-10-09T11:16:36.428Z,3.20
2022-10-09T11:19:19.601Z,3.65
2022-10-09T11:22:00.246Z,3.85
2022-10-09T11:24:55.759Z,4.22
2022-10-09T11:27:29.174Z,3.40
2022-10-09T11:30:02.897Z,3.50
2022-10-09T11:32:35.960Z,3.15
2022-10-09T11:35:09.200Z,3.80
2022-10-09T11:37:40.554Z,3.55
2022-10-09T11:40:16.015Z,3.28
2022-10-09T11:42:49.199Z,3.15
2022-10-09T11:45:29.233Z,3.30
2022-10-09T11:48:06.625Z,3.22
2022-10-09T11:50:43.571Z,3.17
2022-10-09T11:53:14.178Z,3.42
2022-10-09T11:55:42.810Z,3.67
2022-10-09T11:58:23.613Z,3.30
2022-10-09T12:00:55.254Z,3.50
2022-10-09T12:03:33.398Z,3.50
2022-10-09T12:06:08.105Z,3.47
2022-10-09T12:08:37.388Z,8.52
2022-10-09T12:11:15.166Z,4.75
2022-10-09T12:13:55.739Z,3.80
2022-10-09T12:16:34.297Z,4.30
2022-10-09T12:19:05.318Z,3.10
2022-10-09T12:21:39.092Z,3.42
2022-10-09T12:24:07.751Z,3.20
2022-10-09T12:26:37.146Z,3.45
2022-10-09T12:29:07.608Z,3.25
2022-10-09T12:31:39.879Z,3.42
2022-10-09T12:34:19.939Z,3.67
2022-10-09T12:36:48.015Z,3.30
2022-10-09T12:39:19.552Z,3.00
2022-10-09T12:41:50.095Z,2.88
2022-10-09T12:44:27.630Z,3.47
2022-10-09T12:46:56.107Z,3.42
2022-10-09T12:49:26.409Z,3.55
2022-10-09T12:51:56.747Z,3.88
2022-10-09T12:54:25.670Z,3.58
2022-10-09T12:56:55.708Z,4.00
2022-10-09T12:59:27.409Z,3.88
2022-10-09T13:01:59.012Z,3.47
2022-10-09T13:04:31.501Z,3.22
2022-10-09T13:07:02.446Z,3.03
2022-10-09T13:09:35.593Z,3.45
2022-10-09T13:12:08.831Z,3.45
2022-10-09T13:14:43.906Z,3.25
2022-10-09T13:17:24.971Z,3.63
2022-10-09T13:19:53.830Z,2.88
2022-10-09T13:22:23.435Z,3.45
2022-10-09T13:24:53.669Z,3.55
2022-10-09T13:27:22.341Z,3.80
2022-10-09T13:29:51.995Z,3.55
2022-10-09T13:32:20.560Z,3.00
2022-10-09T13:34:48.517Z,3.50
2022-10-09T13:37:20.118Z,2.97
2022-10-09T13:39:48.437Z,2.80
2022-10-09T13:42:17.453Z,3.65
2022-10-09T13:44:45.528Z,3.80
2022-10-09T13:47:15.038Z,4.05
2022-10-09T13:49:43.093Z,3.30
2022-10-09T13:52:11.183Z,3.58
2022-10-09T13:54:39.192Z,3.63
2022-10-09T13:57:07.321Z,3.42
2022-10-09T13:59:35.396Z,2.97
2022-10-09T14:02:03.628Z,3.28
2022-10-09T14:04:33.189Z,3.03
2022-10-09T14:07:01.132Z,3.17
2022-10-09T14:09:29.140Z,2.80
2022-10-09T14:11:57.099Z,3.28
2022-10-09T14:14:25.043Z,3.28
2022-10-09T14:16:52.990Z,3.65
2022-10-09T14:19:26.351Z,3.42
2022-10-09T14:21:55.868Z,3.28
2022-10-09T14:24:24.442Z,3.58
2022-10-09T14:26:52.688Z,3.25
2022-10-09T14:29:20.656Z,3.15
2022-10-09T14:31:50.730Z,3.10
2022-10-09T14:34:18.719Z,3.30
2022-10-09T14:36:46.942Z,2.90
2022-10-09T14:39:17.323Z,3.85
2022-10-09T14:41:45.922Z,3.25
2022-10-09T14:44:14.136Z,3.47
2022-10-09T14:46:42.140Z,2.63
2022-10-09T14:49:11.709Z,3.38
2022-10-09T14:51:41.832Z,2.90
2022-10-09T14:54:10.650Z,3.67
2022-10-09T14:56:40.403Z,3.85
2022-10-09T14:59:08.423Z,3.28
2022-10-09T15:01:36.555Z,2.83
2022-10-09T15:04:05.444Z,3.58
2022-10-09T15:06:34.363Z,3.10
2022-10-09T15:09:05.680Z,3.20
2022-10-09T15:11:35.608Z,3.47
2022-10-09T15:14:05.765Z,3.60
2022-10-09T15:16:33.832Z,3.42
2022-10-09T15:19:02.380Z,3.72
2022-10-09T15:21:32.407Z,3.47
2022-10-09T15:24:02.731Z,3.40
2022-10-09T15:26:33.442Z,3.60
2022-10-09T15:29:05.502Z,4.07
2022-10-09T15:31:34.916Z,3.47
2022-10-09T15:34:03.635Z,3.35
2022-10-09T15:36:35.155Z,3.60
2022-10-09T15:39:06.029Z,3.42
2022-10-09T15:41:35.541Z,3.47
2022-10-09T15:44:06.268Z,3.30
2022-10-09T15:46:34.287Z,3.53
2022-10-09T15:49:02.267Z,3.63
2022-10-09T15:51:33.127Z,3.72
2022-10-09T15:54:02.030Z,4.00
2022-10-09T15:56:30.699Z,3.40
2022-10-09T15:58:59.780Z,4.13
2022-10-09T16:01:29.185Z,3.53
2022-10-09T16:03:58.060Z,3.40
2022-10-09T16:06:26.072Z,3.95
2022-10-09T16:08:56.657Z,3.20
2022-10-09T16:11:26.428Z,3.35
2022-10-09T16:13:56.226Z,3.28
2022-10-09T16:16:26.354Z,3.15
2022-10-09T16:18:56.530Z,3.90
2022-10-09T16:21:25.923Z,3.67
2022-10-09T16:23:58.718Z,3.33
2022-10-09T16:26:29.481Z,3.38
2022-10-09T16:28:58.007Z,3.50
2022-10-09T16:31:28.183Z,4.80
2022-10-09T16:33:58.440Z,4.00
2022-10-09T16:36:26.491Z,4.47
2022-10-09T16:38:54.474Z,4.03
2022-10-09T16:41:24.343Z,4.50
2022-10-09T16:43:53.940Z,4.07
2022-10-09T16:46:24.397Z,3.90
2022-10-09T16:48:54.088Z,4.03
2022-10-09T16:51:25.145Z,3.83
2022-10-09T16:53:54.417Z,4.07
2022-10-09T16:56:24.995Z,4.00
2022-10-09T16:58:56.411Z,4.13
2022-10-09T17:01:25.200Z,3.47
2022-10-09T17:03:54.712Z,3.45
2022-10-09T17:06:24.732Z,3.78
2022-10-09T17:08:53.212Z,4.22
2022-10-09T17:11:22.085Z,3.47
2022-10-09T17:13:50.092Z,3.42
2022-10-09T17:16:20.455Z,3.55
2022-10-09T17:18:49.315Z,3.45
2022-10-09T17:21:19.238Z,3.05
2022-10-09T17:23:49.007Z,3.45
2022-10-09T17:26:19.378Z,3.60
2022-10-09T17:28:48.678Z,3.50
2022-10-09T17:31:19.192Z,3.25
2022-10-09T17:33:48.438Z,3.65
2022-10-09T17:36:19.045Z,3.58
2022-10-09T17:38:49.411Z,3.50
2022-10-09T17:41:19.215Z,9.18
2022-10-09T17:43:47.240Z,10.80
2022-10-09T17:46:16.354Z,6.68
2022-10-09T17:48:48.634Z,6.45
2022-10-09T17:51:17.935Z,5.63
2022-10-09T17:53:46.597Z,4.47
2022-10-09T17:56:16.698Z,4.07
2022-10-09T17:58:47.432Z,3.50
2022-10-09T18:01:16.409Z,4.03
2022-10-09T18:03:45.310Z,4.15
2022-10-09T18:06:15.066Z,3.67
2022-10-09T18:08:43.672Z,4.03
2022-10-09T18:11:14.692Z,3.85
2022-10-09T18:13:45.067Z,4.57
2022-10-09T18:16:15.727Z,4.18
2022-10-09T18:18:44.317Z,4.18
2022-10-09T18:21:16.891Z,4.15
2022-10-09T18:23:46.207Z,4.40
2022-10-09T18:26:16.358Z,3.58
2022-10-09T18:28:48.382Z,3.78
2022-10-09T18:31:19.528Z,4.13
2022-10-09T18:33:48.161Z,4.18
2022-10-09T18:36:19.715Z,3.92
2022-10-09T18:38:49.111Z,3.97
2022-10-09T18:41:17.841Z,4.03
2022-10-09T18:43:47.565Z,3.92
2022-10-09T18:46:16.564Z,4.03
2022-10-09T18:48:45.609Z,4.47
2022-10-09T18:51:17.783Z,4.38
2022-10-09T18:53:49.202Z,4.85
2022-10-09T18:56:20.306Z,5.13
2022-10-09T18:58:51.772Z,5.35
2022-10-09T19:01:20.066Z,5.53
2022-10-09T19:03:50.052Z,4.45
2022-10-09T19:06:19.149Z,4.60
2022-10-09T19:08:47.588Z,4.78
2022-10-09T19:11:15.569Z,5.57
2022-10-09T19:13:44.396Z,4.40
2022-10-09T19:16:13.753Z,4.10
2022-10-09T19:18:41.777Z,4.10
2022-10-09T19:21:14.009Z,4.88
2022-10-09T19:23:42.061Z,5.07
2022-10-09T19:26:10.241Z,5.82
2022-10-09T19:28:39.292Z,5.82
2022-10-09T19:31:08.685Z,5.70
2022-10-09T19:33:39.271Z,5.43
2022-10-09T19:36:08.331Z,5.93
2022-10-09T19:38:36.725Z,5.60
2022-10-09T19:41:06.048Z,5.65
2022-10-09T19:43:34.871Z,5.50
2022-10-09T19:46:04.889Z,5.60
2022-10-09T19:48:33.188Z,5.90
2022-10-09T19:51:06.861Z,6.30
2022-10-09T19:53:35.674Z,5.05
2022-10-09T19:56:09.520Z,4.55
2022-10-09T19:58:40.679Z,4.75
2022-10-09T20:01:09.130Z,5.10
2022-10-09T20:03:37.243Z,4.97
2022-10-09T20:06:08.547Z,5.20
2022-10-09T20:08:36.641Z,4.57
2022-10-09T20:11:05.303Z,4.78
2022-10-09T20:13:34.749Z,4.40
2022-10-09T20:16:03.244Z,4.68
2022-10-09T20:18:31.929Z,4.57
2022-10-09T20:21:00.350Z,4.53
2022-10-09T20:23:29.755Z,4.68
2022-10-09T20:26:02.012Z,4.65
2022-10-09T20:28:32.509Z,4.13
2022-10-09T20:31:02.092Z,5.32
2022-10-09T20:33:30.085Z,5.32
2022-10-09T20:35:57.997Z,4.97
2022-10-09T20:38:26.101Z,4.70
2022-10-09T20:40:55.672Z,5.22
2022-10-09T20:43:23.644Z,5.05
2022-10-09T20:45:51.602Z,5.32
2022-10-09T20:48:19.567Z,5.40
2022-10-09T20:50:47.660Z,6.18
2022-10-09T20:53:16.798Z,5.50
2022-10-09T20:55:44.795Z,5.18
2022-10-09T20:58:14.129Z,5.18
2022-10-09T21:00:45.351Z,5.03
2022-10-09T21:03:13.461Z,4.75
2022-10-09T21:05:42.810Z,4.85
2022-10-09T21:08:11.293Z,4.93
2022-10-09T21:10:43.790Z,5.03
2022-10-09T21:13:11.855Z,5.00
2022-10-09T21:15:43.849Z,4.88
2022-10-09T21:18:12.163Z,5.20
2022-10-09T21:20:41.343Z,6.13
2022-10-09T21:23:10.739Z,6.65
2022-10-09T21:25:39.161Z,6.82
2022-10-09T21:28:07.377Z,5.85
2022-10-09T21:30:41.463Z,5.93
2022-10-09T21:33:11.979Z,5.60
2022-10-09T21:35:41.319Z,6.88
2022-10-09T21:38:12.824Z,5.50
2022-10-09T21:40:40.967Z,5.80
2022-10-09T21:43:10.609Z,5.18
2022-10-09T21:45:38.903Z,6.03
2022-10-09T21:48:08.197Z,6.50
2022-10-09T21:50:38.123Z,6.18
2022-10-09T21:53:06.090Z,7.13
2022-10-09T21:55:34.088Z,7.38
2022-10-09T21:58:02.101Z,7.10
2022-10-09T22:00:30.072Z,6.57
2022-10-09T22:02:58.044Z,6.38
2022-10-09T22:05:26.011Z,6.65
2022-10-09T22:07:55.383Z,7.15
2022-10-09T22:10:23.895Z,7.10
2022-10-09T22:12:52.268Z,6.72
2022-10-09T22:15:20.471Z,7.28
2022-10-09T22:17:48.524Z,8.50
2022-10-09T22:20:16.559Z,7.20
2022-10-09T22:22:44.552Z,8.05
2022-10-09T22:25:13.889Z,8.60
2022-10-09T22:27:41.886Z,7.10
2022-10-09T22:30:10.809Z,6.82
2022-10-09T22:32:38.829Z,8.13
2022-10-09T22:35:07.647Z,8.05
2022-10-09T22:37:35.604Z,8.05
2022-10-09T22:40:03.587Z,7.50
2022-10-09T22:42:34.439Z,6.90
2022-10-09T22:45:02.540Z,7.63
2022-10-09T22:47:30.543Z,7.72
2022-10-09T22:49:58.491Z,8.25
2022-10-09T22:52:26.552Z,6.95
2022-10-09T22:54:55.757Z,8.13
2022-10-09T22:57:23.738Z,8.73
2022-10-09T22:59:53.039Z,8.77
2022-10-09T23:02:21.009Z,9.43
2022-10-09T23:04:48.961Z,9.30
2022-10-09T23:07:16.891Z,8.80
2022-10-09T23:09:44.906Z,10.00
2022-10-09T23:12:12.859Z,9.05
2022-10-09T23:14:40.823Z,9.02
2022-10-09T23:17:10.160Z,9.13
2022-10-09T23:19:38.451Z,8.15
2022-10-09T23:22:06.401Z,8.65
2022-10-09T23:24:34.411Z,8.52
2022-10-09T23:27:02.395Z,8.07
2022-10-09T23:29:30.447Z,8.25
2022-10-09T23:31:58.426Z,7.95
2022-10-09T23:34:27.757Z,7.57
2022-10-09T23:36:55.724Z,8.35
2022-10-09T23:39:23.717Z,7.57
2022-10-09T23:41:51.685Z,7.70
2022-10-09T23:44:22.225Z,7.60
2022-10-09T23:46:50.469Z,7.15
2022-10-09T23:49:18.552Z,7.43
2022-10-09T23:51:47.997Z,7.20
2022-10-09T23:54:16.002Z,7.25
2022-10-09T23:56:44.049Z,6.93
2022-10-09T23:59:12.786Z,6.82
